sensor_id;sensor_type;location;lat;lon;timestamp;P1;durP1;ratioP1;P2;durP2;ratioP2
73859;SDS011;62197;51.632;13.700;2022-12-18T00:01:39;47.00;;;15.82;;
73859;SDS011;62197;51.632;13.700;2022-12-18T00:04:05;51.45;;;15.82;;
73859;SDS011;62197;51.632;13.700;2022-12-18T00:06:32;51.42;;;15.90;;
73859;SDS011;62197;51.632;13.700;2022-12-18T00:08:59;51.35;;;15.45;;
73859;SDS011;62197;51.632;13.700;2022-12-18T00:11:26;64.15;;;18.45;;
73859;SDS011;62197;51.632;13.700;2022-12-18T00:13:54;50.50;;;14.77;;
73859;SDS011;62197;51.632;13.700;2022-12-18T00:16:21;45.25;;;14.23;;
73859;SDS011;62197;51.632;13.700;2022-12-18T00:18:48;51.25;;;15.82;;
73859;SDS011;62197;51.632;13.700;2022-12-18T00:21:15;46.15;;;15.15;;
73859;SDS011;62197;51.632;13.700;2022-12-18T00:23:41;48.42;;;15.93;;
73859;SDS011;62197;51.632;13.700;2022-12-18T00:26:10;45.42;;;14.15;;
73859;SDS011;62197;51.632;13.700;2022-12-18T00:28:36;48.78;;;16.58;;
73859;SDS011;62197;51.632;13.700;2022-12-18T00:31:02;50.40;;;15.48;;
73859;SDS011;62197;51.632;13.700;2022-12-18T00:33:29;51.75;;;17.20;;
73859;SDS011;62197;51.632;13.700;2022-12-18T00:35:54;55.28;;;17.60;;
73859;SDS011;62197;51.632;13.700;2022-12-18T00:38:24;49.17;;;17.02;;
73859;SDS011;62197;51.632;13.700;2022-12-18T00:40:50;56.38;;;18.05;;
73859;SDS011;62197;51.632;13.700;2022-12-18T00:43:15;32.33;;;11.98;;
73859;SDS011;62197;51.632;13.700;2022-12-18T00:45:40;43.80;;;14.20;;
73859;SDS011;62197;51.632;13.700;2022-12-18T00:48:06;56.25;;;16.98;;
73859;SDS011;62197;51.632;13.700;2022-12-18T00:50:31;39.78;;;14.07;;
73859;SDS011;62197;51.632;13.700;2022-12-18T00:52:56;53.30;;;15.32;;
73859;SDS011;62197;51.632;13.700;2022-12-18T00:55:22;44.03;;;14.75;;
73859;SDS011;62197;51.632;13.700;2022-12-18T00:57:47;58.75;;;15.80;;
73859;SDS011;62197;51.632;13.700;2022-12-18T01:00:13;38.42;;;13.85;;
73859;SDS011;62197;51.632;13.700;2022-12-18T01:02:40;43.28;;;13.48;;
73859;SDS011;62197;51.632;13.700;2022-12-18T01:05:05;40.20;;;12.35;;
73859;SDS011;62197;51.632;13.700;2022-12-18T01:07:31;48.30;;;15.82;;
73859;SDS011;62197;51.632;13.700;2022-12-18T01:09:56;42.72;;;14.18;;
73859;SDS011;62197;51.632;13.700;2022-12-18T01:12:22;39.75;;;13.40;;
73859;SDS011;62197;51.632;13.700;2022-12-18T01:14:47;47.00;;;12.90;;
73859;SDS011;62197;51.632;13.700;2022-12-18T01:17:12;40.38;;;14.25;;
73859;SDS011;62197;51.632;13.700;2022-12-18T01:19:38;42.83;;;13.25;;
73859;SDS011;62197;51.632;13.700;2022-12-18T01:22:03;36.97;;;13.98;;
73859;SDS011;62197;51.632;13.700;2022-12-18T01:24:29;39.63;;;12.82;;
73859;SDS011;62197;51.632;13.700;2022-12-18T01:26:54;43.65;;;13.40;;
73859;SDS011;62197;51.632;13.700;2022-12-18T01:29:21;42.20;;;14.43;;
73859;SDS011;62197;51.632;13.700;2022-12-18T01:31:46;37.53;;;13.13;;
73859;SDS011;62197;51.632;13.700;2022-12-18T01:34:12;42.60;;;14.27;;
73859;SDS011;62197;51.632;13.700;2022-12-18T01:36:39;38.03;;;11.60;;
73859;SDS011;62197;51.632;13.700;2022-12-18T01:39:06;43.28;;;13.93;;
73859;SDS011;62197;51.632;13.700;2022-12-18T01:41:34;41.22;;;12.10;;
73859;SDS011;62197;51.632;13.700;2022-12-18T01:47:03;36.15;;;14.52;;
73859;SDS011;62197;51.632;13.700;2022-12-18T01:49:28;41.58;;;14.65;;
73859;SDS011;62197;51.632;13.700;2022-12-18T01:51:53;40.72;;;13.43;;
73859;SDS011;62197;51.632;13.700;2022-12-18T01:54:19;42.47;;;14.20;;
73859;SDS011;62197;51.632;13.700;2022-12-18T01:56:44;44.13;;;14.88;;
73859;SDS011;62197;51.632;13.700;2022-12-18T01:59:09;40.80;;;12.70;;
73859;SDS011;62197;51.632;13.700;2022-12-18T02:01:36;38.70;;;13.68;;
73859;SDS011;62197;51.632;13.700;2022-12-18T02:04:21;39.65;;;12.90;;
73859;SDS011;62197;51.632;13.700;2022-12-18T02:06:51;44.55;;;15.55;;
73859;SDS011;62197;51.632;13.700;2022-12-18T02:09:31;52.90;;;14.10;;
73859;SDS011;62197;51.632;13.700;2022-12-18T02:12:06;40.85;;;14.85;;
73859;SDS011;62197;51.632;13.700;2022-12-18T02:14:43;46.28;;;14.98;;
73859;SDS011;62197;51.632;13.700;2022-12-18T02:17:35;42.60;;;15.65;;
73859;SDS011;62197;51.632;13.700;2022-12-18T02:28:12;32.78;;;12.88;;
73859;SDS011;62197;51.632;13.700;2022-12-18T02:30:41;46.38;;;15.13;;
73859;SDS011;62197;51.632;13.700;2022-12-18T02:33:09;37.92;;;13.55;;
73859;SDS011;62197;51.632;13.700;2022-12-18T02:35:37;43.20;;;15.77;;
73859;SDS011;62197;51.632;13.700;2022-12-18T02:38:05;49.10;;;16.65;;
73859;SDS011;62197;51.632;13.700;2022-12-18T02:40:31;45.55;;;14.23;;
73859;SDS011;62197;51.632;13.700;2022-12-18T02:43:02;43.22;;;14.63;;
73859;SDS011;62197;51.632;13.700;2022-12-18T02:45:48;48.03;;;14.35;;
73859;SDS011;62197;51.632;13.700;2022-12-18T02:48:21;44.65;;;14.60;;
73859;SDS011;62197;51.632;13.700;2022-12-18T02:50:52;46.72;;;14.70;;
73859;SDS011;62197;51.632;13.700;2022-12-18T02:56:07;37.78;;;13.88;;
73859;SDS011;62197;51.632;13.700;2022-12-18T03:06:47;38.70;;;11.88;;
73859;SDS011;62197;51.632;13.700;2022-12-18T03:09:17;35.25;;;11.82;;
73859;SDS011;62197;51.632;13.700;2022-12-18T03:11:49;44.00;;;13.80;;
73859;SDS011;62197;51.632;13.700;2022-12-18T03:14:39;35.45;;;11.68;;
73859;SDS011;62197;51.632;13.700;2022-12-18T03:17:07;38.00;;;11.73;;
73859;SDS011;62197;51.632;13.700;2022-12-18T03:19:38;43.00;;;13.15;;
73859;SDS011;62197;51.632;13.700;2022-12-18T03:22:07;38.10;;;11.73;;
73859;SDS011;62197;51.632;13.700;2022-12-18T03:24:33;36.83;;;12.73;;
73859;SDS011;62197;51.632;13.700;2022-12-18T03:27:02;35.15;;;11.45;;
73859;SDS011;62197;51.632;13.700;2022-12-18T03:29:35;35.67;;;14.02;;
73859;SDS011;62197;51.632;13.700;2022-12-18T03:32:09;37.42;;;12.57;;
73859;SDS011;62197;51.632;13.700;2022-12-18T03:34:38;40.28;;;13.45;;
73859;SDS011;62197;51.632;13.700;2022-12-18T03:37:07;32.08;;;12.45;;
73859;SDS011;62197;51.632;13.700;2022-12-18T03:39:33;40.45;;;14.15;;
73859;SDS011;62197;51.632;13.700;2022-12-18T03:44:57;41.45;;;12.82;;
73859;SDS011;62197;51.632;13.700;2022-12-18T03:50:49;36.83;;;12.65;;
73859;SDS011;62197;51.632;13.700;2022-12-18T03:55:42;40.70;;;12.07;;
73859;SDS011;62197;51.632;13.700;2022-12-18T03:58:09;29.33;;;11.48;;
73859;SDS011;62197;51.632;13.700;2022-12-18T04:00:38;42.08;;;12.77;;
73859;SDS011;62197;51.632;13.700;2022-12-18T04:03:04;35.78;;;10.70;;
73859;SDS011;62197;51.632;13.700;2022-12-18T04:05:30;32.60;;;11.98;;
73859;SDS011;62197;51.632;13.700;2022-12-18T04:07:59;36.50;;;12.23;;
73859;SDS011;62197;51.632;13.700;2022-12-18T04:10:26;36.63;;;13.70;;
73859;SDS011;62197;51.632;13.700;2022-12-18T04:12:51;40.63;;;11.18;;
73859;SDS011;62197;51.632;13.700;2022-12-18T04:15:21;44.78;;;13.00;;
73859;SDS011;62197;51.632;13.700;2022-12-18T04:17:47;37.95;;;12.23;;
73859;SDS011;62197;51.632;13.700;2022-12-18T04:20:13;34.90;;;11.40;;
73859;SDS011;62197;51.632;13.700;2022-12-18T04:22:39;29.38;;;11.05;;
73859;SDS011;62197;51.632;13.700;2022-12-18T04:25:04;38.67;;;13.07;;
73859;SDS011;62197;51.632;13.700;2022-12-18T04:27:30;34.78;;;12.88;;
73859;SDS011;62197;51.632;13.700;2022-12-18T04:29:55;42.90;;;14.68;;
73859;SDS011;62197;51.632;13.700;2022-12-18T04:32:21;38.08;;;10.90;;
73859;SDS011;62197;51.632;13.700;2022-12-18T04:34:46;31.60;;;11.05;;
73859;SDS011;62197;51.632;13.700;2022-12-18T04:37:11;39.10;;;12.88;;
73859;SDS011;62197;51.632;13.700;2022-12-18T04:39:37;35.30;;;11.52;;
73859;SDS011;62197;51.632;13.700;2022-12-18T04:42:02;33.28;;;12.35;;
73859;SDS011;62197;51.632;13.700;2022-12-18T04:44:28;32.40;;;10.60;;
73859;SDS011;62197;51.632;13.700;2022-12-18T04:46:53;31.35;;;10.77;;
73859;SDS011;62197;51.632;13.700;2022-12-18T04:49:18;35.22;;;11.82;;
73859;SDS011;62197;51.632;13.700;2022-12-18T04:51:44;34.95;;;10.70;;
73859;SDS011;62197;51.632;13.700;2022-12-18T04:54:09;32.40;;;11.85;;
73859;SDS011;62197;51.632;13.700;2022-12-18T04:56:34;43.47;;;11.93;;
73859;SDS011;62197;51.632;13.700;2022-12-18T04:59:00;29.02;;;11.73;;
73859;SDS011;62197;51.632;13.700;2022-12-18T05:01:25;33.13;;;11.05;;
73859;SDS011;62197;51.632;13.700;2022-12-18T05:03:51;37.47;;;10.95;;
73859;SDS011;62197;51.632;13.700;2022-12-18T05:06:16;35.80;;;12.02;;
73859;SDS011;62197;51.632;13.700;2022-12-18T05:08:41;31.08;;;10.63;;
73859;SDS011;62197;51.632;13.700;2022-12-18T05:11:08;29.00;;;10.10;;
73859;SDS011;62197;51.632;13.700;2022-12-18T05:13:36;34.05;;;11.95;;
73859;SDS011;62197;51.632;13.700;2022-12-18T05:16:02;38.50;;;12.48;;
73859;SDS011;62197;51.632;13.700;2022-12-18T05:18:28;41.88;;;12.45;;
73859;SDS011;62197;51.632;13.700;2022-12-18T05:20:54;33.78;;;10.70;;
73859;SDS011;62197;51.632;13.700;2022-12-18T05:23:20;37.80;;;11.10;;
73859;SDS011;62197;51.632;13.700;2022-12-18T05:25:50;29.33;;;10.80;;
73859;SDS011;62197;51.632;13.700;2022-12-18T05:28:17;39.25;;;12.27;;
73859;SDS011;62197;51.632;13.700;2022-12-18T05:30:42;33.05;;;12.32;;
73859;SDS011;62197;51.632;13.700;2022-12-18T05:33:12;34.70;;;11.20;;
73859;SDS011;62197;51.632;13.700;2022-12-18T05:35:38;36.55;;;11.10;;
73859;SDS011;62197;51.632;13.700;2022-12-18T05:38:03;34.30;;;11.13;;
73859;SDS011;62197;51.632;13.700;2022-12-18T05:40:28;35.15;;;12.63;;
73859;SDS011;62197;51.632;13.700;2022-12-18T05:42:54;45.17;;;11.05;;
73859;SDS011;62197;51.632;13.700;2022-12-18T05:45:19;35.00;;;11.05;;
73859;SDS011;62197;51.632;13.700;2022-12-18T05:47:45;32.47;;;10.50;;
73859;SDS011;62197;51.632;13.700;2022-12-18T05:50:10;30.63;;;11.63;;
73859;SDS011;62197;51.632;13.700;2022-12-18T05:52:36;31.75;;;9.48;;
73859;SDS011;62197;51.632;13.700;2022-12-18T05:55:01;28.60;;;11.13;;
73859;SDS011;62197;51.632;13.700;2022-12-18T05:57:26;33.60;;;12.35;;
73859;SDS011;62197;51.632;13.700;2022-12-18T05:59:52;36.38;;;12.60;;
73859;SDS011;62197;51.632;13.700;2022-12-18T06:02:17;35.92;;;11.98;;
73859;SDS011;62197;51.632;13.700;2022-12-18T06:04:43;33.15;;;13.52;;
73859;SDS011;62197;51.632;13.700;2022-12-18T06:07:08;33.13;;;10.13;;
73859;SDS011;62197;51.632;13.700;2022-12-18T06:09:33;34.25;;;11.02;;
73859;SDS011;62197;51.632;13.700;2022-12-18T06:11:59;24.75;;;11.00;;
73859;SDS011;62197;51.632;13.700;2022-12-18T06:14:24;27.13;;;10.43;;
73859;SDS011;62197;51.632;13.700;2022-12-18T06:16:50;34.58;;;11.60;;
73859;SDS011;62197;51.632;13.700;2022-12-18T06:19:16;33.95;;;10.40;;
73859;SDS011;62197;51.632;13.700;2022-12-18T06:21:42;38.85;;;11.13;;
73859;SDS011;62197;51.632;13.700;2022-12-18T06:24:07;38.38;;;11.10;;
73859;SDS011;62197;51.632;13.700;2022-12-18T06:26:32;31.05;;;11.25;;
73859;SDS011;62197;51.632;13.700;2022-12-18T06:28:58;27.08;;;11.20;;
73859;SDS011;62197;51.632;13.700;2022-12-18T06:31:23;38.92;;;12.38;;
73859;SDS011;62197;51.632;13.700;2022-12-18T06:33:49;33.03;;;10.45;;
73859;SDS011;62197;51.632;13.700;2022-12-18T06:36:15;27.30;;;10.20;;
73859;SDS011;62197;51.632;13.700;2022-12-18T06:38:42;32.72;;;10.85;;
73859;SDS011;62197;51.632;13.700;2022-12-18T06:41:08;32.20;;;11.13;;
73859;SDS011;62197;51.632;13.700;2022-12-18T06:43:35;30.90;;;11.18;;
73859;SDS011;62197;51.632;13.700;2022-12-18T06:46:01;28.65;;;10.85;;
73859;SDS011;62197;51.632;13.700;2022-12-18T06:50:53;25.20;;;9.40;;
73859;SDS011;62197;51.632;13.700;2022-12-18T06:53:18;22.90;;;9.27;;
73859;SDS011;62197;51.632;13.700;2022-12-18T06:55:44;33.47;;;9.90;;
73859;SDS011;62197;51.632;13.700;2022-12-18T06:58:09;39.95;;;11.02;;
73859;SDS011;62197;51.632;13.700;2022-12-18T07:00:34;28.20;;;11.32;;
73859;SDS011;62197;51.632;13.700;2022-12-18T07:03:00;41.00;;;12.13;;
73859;SDS011;62197;51.632;13.700;2022-12-18T07:05:25;22.52;;;7.85;;
73859;SDS011;62197;51.632;13.700;2022-12-18T07:07:51;29.65;;;10.82;;
73859;SDS011;62197;51.632;13.700;2022-12-18T07:10:16;32.28;;;11.20;;
73859;SDS011;62197;51.632;13.700;2022-12-18T07:12:41;25.00;;;10.38;;
73859;SDS011;62197;51.632;13.700;2022-12-18T07:15:07;29.55;;;10.20;;
73859;SDS011;62197;51.632;13.700;2022-12-18T07:17:32;25.58;;;9.27;;
73859;SDS011;62197;51.632;13.700;2022-12-18T07:19:58;32.03;;;11.52;;
73859;SDS011;62197;51.632;13.700;2022-12-18T07:22:24;29.80;;;10.57;;
73859;SDS011;62197;51.632;13.700;2022-12-18T07:24:50;32.03;;;9.65;;
73859;SDS011;62197;51.632;13.700;2022-12-18T07:27:16;28.10;;;10.00;;
73859;SDS011;62197;51.632;13.700;2022-12-18T07:29:41;33.33;;;11.63;;
73859;SDS011;62197;51.632;13.700;2022-12-18T07:32:06;24.48;;;11.35;;
73859;SDS011;62197;51.632;13.700;2022-12-18T07:34:32;38.17;;;12.25;;
73859;SDS011;62197;51.632;13.700;2022-12-18T07:36:57;25.30;;;10.20;;
73859;SDS011;62197;51.632;13.700;2022-12-18T07:39:23;27.92;;;9.55;;
73859;SDS011;62197;51.632;13.700;2022-12-18T07:41:48;31.83;;;11.52;;
73859;SDS011;62197;51.632;13.700;2022-12-18T07:44:33;32.05;;;10.05;;
73859;SDS011;62197;51.632;13.700;2022-12-18T07:46:59;27.90;;;9.40;;
73859;SDS011;62197;51.632;13.700;2022-12-18T07:49:24;33.13;;;9.48;;
73859;SDS011;62197;51.632;13.700;2022-12-18T07:51:50;31.10;;;11.32;;
73859;SDS011;62197;51.632;13.700;2022-12-18T07:54:15;31.88;;;10.32;;
73859;SDS011;62197;51.632;13.700;2022-12-18T07:56:40;33.05;;;10.95;;
73859;SDS011;62197;51.632;13.700;2022-12-18T07:59:06;23.08;;;9.57;;
73859;SDS011;62197;51.632;13.700;2022-12-18T08:01:32;30.40;;;10.55;;
73859;SDS011;62197;51.632;13.700;2022-12-18T08:03:58;26.70;;;7.90;;
73859;SDS011;62197;51.632;13.700;2022-12-18T08:06:24;33.53;;;10.55;;
73859;SDS011;62197;51.632;13.700;2022-12-18T08:08:50;28.63;;;11.15;;
73859;SDS011;62197;51.632;13.700;2022-12-18T08:11:16;32.20;;;12.27;;
73859;SDS011;62197;51.632;13.700;2022-12-18T08:13:41;25.27;;;8.13;;
73859;SDS011;62197;51.632;13.700;2022-12-18T08:16:07;25.95;;;8.95;;
73859;SDS011;62197;51.632;13.700;2022-12-18T08:18:33;25.23;;;10.20;;
73859;SDS011;62197;51.632;13.700;2022-12-18T08:21:07;26.20;;;8.35;;
73859;SDS011;62197;51.632;13.700;2022-12-18T08:23:43;20.55;;;8.48;;
73859;SDS011;62197;51.632;13.700;2022-12-18T08:26:12;27.17;;;10.40;;
73859;SDS011;62197;51.632;13.700;2022-12-18T08:28:38;27.83;;;8.85;;
73859;SDS011;62197;51.632;13.700;2022-12-18T08:31:04;31.77;;;10.48;;
73859;SDS011;62197;51.632;13.700;2022-12-18T08:33:30;29.98;;;12.82;;
73859;SDS011;62197;51.632;13.700;2022-12-18T08:35:55;24.63;;;10.35;;
73859;SDS011;62197;51.632;13.700;2022-12-18T08:38:20;30.83;;;10.45;;
73859;SDS011;62197;51.632;13.700;2022-12-18T08:40:47;26.38;;;9.55;;
73859;SDS011;62197;51.632;13.700;2022-12-18T08:43:13;20.90;;;8.73;;
73859;SDS011;62197;51.632;13.700;2022-12-18T08:45:56;29.60;;;9.57;;
73859;SDS011;62197;51.632;13.700;2022-12-18T08:48:22;24.92;;;8.90;;
73859;SDS011;62197;51.632;13.700;2022-12-18T08:50:57;19.92;;;8.60;;
73859;SDS011;62197;51.632;13.700;2022-12-18T08:53:24;25.88;;;9.45;;
73859;SDS011;62197;51.632;13.700;2022-12-18T08:55:49;27.65;;;9.30;;
73859;SDS011;62197;51.632;13.700;2022-12-18T08:58:14;29.15;;;9.40;;
73859;SDS011;62197;51.632;13.700;2022-12-18T09:00:40;26.30;;;8.98;;
73859;SDS011;62197;51.632;13.700;2022-12-18T09:03:10;21.75;;;8.07;;
73859;SDS011;62197;51.632;13.700;2022-12-18T09:05:36;22.02;;;7.78;;
73859;SDS011;62197;51.632;13.700;2022-12-18T09:08:02;23.67;;;8.98;;
73859;SDS011;62197;51.632;13.700;2022-12-18T09:10:27;22.83;;;9.05;;
73859;SDS011;62197;51.632;13.700;2022-12-18T09:12:53;21.27;;;8.27;;
73859;SDS011;62197;51.632;13.700;2022-12-18T09:15:18;22.88;;;9.73;;
73859;SDS011;62197;51.632;13.700;2022-12-18T09:17:43;21.42;;;8.40;;
73859;SDS011;62197;51.632;13.700;2022-12-18T09:20:09;23.83;;;8.55;;
73859;SDS011;62197;51.632;13.700;2022-12-18T09:22:34;23.70;;;9.23;;
73859;SDS011;62197;51.632;13.700;2022-12-18T09:25:00;21.08;;;9.00;;
73859;SDS011;62197;51.632;13.700;2022-12-18T09:27:25;26.17;;;11.27;;
73859;SDS011;62197;51.632;13.700;2022-12-18T09:29:50;24.85;;;10.88;;
73859;SDS011;62197;51.632;13.700;2022-12-18T09:32:16;20.17;;;9.05;;
73859;SDS011;62197;51.632;13.700;2022-12-18T09:34:41;19.67;;;9.05;;
73859;SDS011;62197;51.632;13.700;2022-12-18T09:37:06;17.40;;;7.18;;
73859;SDS011;62197;51.632;13.700;2022-12-18T09:39:32;53.20;;;15.60;;
73859;SDS011;62197;51.632;13.700;2022-12-18T09:41:57;99.00;;;28.48;;
73859;SDS011;62197;51.632;13.700;2022-12-18T09:44:30;38.72;;;15.10;;
73859;SDS011;62197;51.632;13.700;2022-12-18T09:49:51;22.83;;;9.43;;
73859;SDS011;62197;51.632;13.700;2022-12-18T09:55:16;22.92;;;10.23;;
73859;SDS011;62197;51.632;13.700;2022-12-18T09:57:56;23.23;;;9.13;;
73859;SDS011;62197;51.632;13.700;2022-12-18T10:02:53;22.70;;;8.23;;
73859;SDS011;62197;51.632;13.700;2022-12-18T10:11:27;23.13;;;9.68;;
73859;SDS011;62197;51.632;13.700;2022-12-18T10:16:55;19.85;;;8.35;;
73859;SDS011;62197;51.632;13.700;2022-12-18T10:19:37;19.08;;;8.85;;
73859;SDS011;62197;51.632;13.700;2022-12-18T10:25:15;17.60;;;7.45;;
73859;SDS011;62197;51.632;13.700;2022-12-18T10:28:15;17.05;;;8.32;;
73859;SDS011;62197;51.632;13.700;2022-12-18T10:30:42;17.15;;;8.88;;
73859;SDS011;62197;51.632;13.700;2022-12-18T10:33:12;18.48;;;8.90;;
73859;SDS011;62197;51.632;13.700;2022-12-18T10:35:40;20.60;;;9.18;;
73859;SDS011;62197;51.632;13.700;2022-12-18T10:38:20;21.70;;;8.30;;
73859;SDS011;62197;51.632;13.700;2022-12-18T10:41:04;20.02;;;8.77;;
73859;SDS011;62197;51.632;13.700;2022-12-18T10:43:47;19.58;;;8.93;;
73859;SDS011;62197;51.632;13.700;2022-12-18T10:46:17;20.77;;;8.13;;
73859;SDS011;62197;51.632;13.700;2022-12-18T10:54:14;17.77;;;7.78;;
73859;SDS011;62197;51.632;13.700;2022-12-18T10:56:43;18.60;;;8.80;;
73859;SDS011;62197;51.632;13.700;2022-12-18T11:01:52;21.35;;;8.50;;
73859;SDS011;62197;51.632;13.700;2022-12-18T11:04:23;15.65;;;7.38;;
73859;SDS011;62197;51.632;13.700;2022-12-18T11:06:54;20.63;;;8.82;;
73859;SDS011;62197;51.632;13.700;2022-12-18T11:09:21;24.35;;;9.88;;
73859;SDS011;62197;51.632;13.700;2022-12-18T11:11:49;22.63;;;8.60;;
73859;SDS011;62197;51.632;13.700;2022-12-18T11:14:18;18.58;;;8.40;;
73859;SDS011;62197;51.632;13.700;2022-12-18T11:16:47;21.55;;;9.25;;
73859;SDS011;62197;51.632;13.700;2022-12-18T11:19:19;22.52;;;9.50;;
73859;SDS011;62197;51.632;13.700;2022-12-18T11:21:46;18.20;;;8.27;;
73859;SDS011;62197;51.632;13.700;2022-12-18T11:29:24;21.92;;;9.43;;
73859;SDS011;62197;51.632;13.700;2022-12-18T11:32:40;20.80;;;8.70;;
73859;SDS011;62197;51.632;13.700;2022-12-18T11:34:48;20.50;;;8.68;;
73859;SDS011;62197;51.632;13.700;2022-12-18T11:37:18;26.17;;;10.68;;
73859;SDS011;62197;51.632;13.700;2022-12-18T11:39:52;25.50;;;8.23;;
73859;SDS011;62197;51.632;13.700;2022-12-18T11:47:43;19.00;;;7.97;;
73859;SDS011;62197;51.632;13.700;2022-12-18T11:50:21;22.70;;;8.95;;
73859;SDS011;62197;51.632;13.700;2022-12-18T11:52:50;19.30;;;8.05;;
73859;SDS011;62197;51.632;13.700;2022-12-18T11:55:28;20.08;;;8.15;;
73859;SDS011;62197;51.632;13.700;2022-12-18T12:18:55;19.35;;;8.02;;
73859;SDS011;62197;51.632;13.700;2022-12-18T12:21:41;19.70;;;9.05;;
73859;SDS011;62197;51.632;13.700;2022-12-18T12:26:45;22.48;;;8.85;;
73859;SDS011;62197;51.632;13.700;2022-12-18T12:29:46;18.33;;;8.60;;
73859;SDS011;62197;51.632;13.700;2022-12-18T12:35:01;21.13;;;8.40;;
73859;SDS011;62197;51.632;13.700;2022-12-18T12:37:38;23.00;;;9.52;;
73859;SDS011;62197;51.632;13.700;2022-12-18T12:40:30;17.90;;;8.90;;
73859;SDS011;62197;51.632;13.700;2022-12-18T12:43:01;17.27;;;8.60;;
73859;SDS011;62197;51.632;13.700;2022-12-18T12:45:49;19.88;;;8.85;;
73859;SDS011;62197;51.632;13.700;2022-12-18T12:51:11;22.45;;;9.32;;
73859;SDS011;62197;51.632;13.700;2022-12-18T12:53:40;19.98;;;8.48;;
73859;SDS011;62197;51.632;13.700;2022-12-18T12:56:06;17.40;;;8.13;;
73859;SDS011;62197;51.632;13.700;2022-12-18T12:58:41;16.65;;;8.02;;
73859;SDS011;62197;51.632;13.700;2022-12-18T13:01:32;18.75;;;8.10;;
73859;SDS011;62197;51.632;13.700;2022-12-18T13:04:12;19.08;;;9.15;;
73859;SDS011;62197;51.632;13.700;2022-12-18T13:07:06;19.95;;;9.48;;
73859;SDS011;62197;51.632;13.700;2022-12-18T13:13:01;23.20;;;8.93;;
73859;SDS011;62197;51.632;13.700;2022-12-18T13:20:34;23.17;;;9.77;;
73859;SDS011;62197;51.632;13.700;2022-12-18T13:31:57;23.27;;;8.82;;
73859;SDS011;62197;51.632;13.700;2022-12-18T13:34:18;19.58;;;7.80;;
73859;SDS011;62197;51.632;13.700;2022-12-18T13:36:45;19.13;;;8.27;;
73859;SDS011;62197;51.632;13.700;2022-12-18T13:41:43;21.90;;;9.75;;
73859;SDS011;62197;51.632;13.700;2022-12-18T13:44:24;23.20;;;9.57;;
73859;SDS011;62197;51.632;13.700;2022-12-18T13:46:55;23.60;;;10.30;;
73859;SDS011;62197;51.632;13.700;2022-12-18T13:52:00;17.77;;;8.55;;
73859;SDS011;62197;51.632;13.700;2022-12-18T13:54:36;23.55;;;9.45;;
73859;SDS011;62197;51.632;13.700;2022-12-18T13:57:05;21.33;;;9.00;;
73859;SDS011;62197;51.632;13.700;2022-12-18T13:59:49;16.13;;;7.28;;
73859;SDS011;62197;51.632;13.700;2022-12-18T14:02:16;23.50;;;8.63;;
73859;SDS011;62197;51.632;13.700;2022-12-18T14:04:52;19.55;;;7.78;;
73859;SDS011;62197;51.632;13.700;2022-12-18T14:07:22;25.65;;;9.73;;
73859;SDS011;62197;51.632;13.700;2022-12-18T14:09:51;23.63;;;8.90;;
73859;SDS011;62197;51.632;13.700;2022-12-18T14:12:20;20.65;;;8.70;;
73859;SDS011;62197;51.632;13.700;2022-12-18T14:15:10;22.85;;;9.30;;
73859;SDS011;62197;51.632;13.700;2022-12-18T14:17:49;17.70;;;7.90;;
73859;SDS011;62197;51.632;13.700;2022-12-18T14:20:15;24.35;;;8.93;;
73859;SDS011;62197;51.632;13.700;2022-12-18T14:22:45;23.35;;;10.45;;
73859;SDS011;62197;51.632;13.700;2022-12-18T14:25:18;24.95;;;9.38;;
73859;SDS011;62197;51.632;13.700;2022-12-18T14:30:38;23.02;;;8.70;;
73859;SDS011;62197;51.632;13.700;2022-12-18T14:33:08;20.33;;;8.07;;
73859;SDS011;62197;51.632;13.700;2022-12-18T14:35:40;18.17;;;8.45;;
73859;SDS011;62197;51.632;13.700;2022-12-18T14:38:11;21.27;;;8.75;;
73859;SDS011;62197;51.632;13.700;2022-12-18T14:40:46;24.17;;;8.32;;
73859;SDS011;62197;51.632;13.700;2022-12-18T14:43:11;21.63;;;8.27;;
73859;SDS011;62197;51.632;13.700;2022-12-18T14:45:38;21.08;;;8.98;;
73859;SDS011;62197;51.632;13.700;2022-12-18T14:48:06;22.83;;;8.88;;
73859;SDS011;62197;51.632;13.700;2022-12-18T14:50:43;21.98;;;8.27;;
73859;SDS011;62197;51.632;13.700;2022-12-18T14:53:19;22.35;;;8.50;;
73859;SDS011;62197;51.632;13.700;2022-12-18T14:55:47;22.60;;;8.70;;
73859;SDS011;62197;51.632;13.700;2022-12-18T14:58:14;20.27;;;8.32;;
73859;SDS011;62197;51.632;13.700;2022-12-18T15:00:41;18.75;;;7.82;;
73859;SDS011;62197;51.632;13.700;2022-12-18T15:03:07;18.38;;;7.57;;
73859;SDS011;62197;51.632;13.700;2022-12-18T15:05:33;21.05;;;7.93;;
73859;SDS011;62197;51.632;13.700;2022-12-18T15:07:59;19.60;;;7.95;;
73859;SDS011;62197;51.632;13.700;2022-12-18T15:10:30;20.45;;;8.50;;
73859;SDS011;62197;51.632;13.700;2022-12-18T15:20:41;21.63;;;8.52;;
73859;SDS011;62197;51.632;13.700;2022-12-18T15:25:47;24.17;;;9.40;;
73859;SDS011;62197;51.632;13.700;2022-12-18T15:28:18;24.55;;;10.27;;
73859;SDS011;62197;51.632;13.700;2022-12-18T15:30:57;21.98;;;8.50;;
73859;SDS011;62197;51.632;13.700;2022-12-18T15:33:25;18.83;;;9.30;;
73859;SDS011;62197;51.632;13.700;2022-12-18T15:35:58;24.50;;;8.10;;
73859;SDS011;62197;51.632;13.700;2022-12-18T15:38:25;20.65;;;8.82;;
73859;SDS011;62197;51.632;13.700;2022-12-18T15:40:51;31.10;;;9.32;;
73859;SDS011;62197;51.632;13.700;2022-12-18T15:43:18;18.98;;;8.75;;
73859;SDS011;62197;51.632;13.700;2022-12-18T15:45:58;22.27;;;9.18;;
73859;SDS011;62197;51.632;13.700;2022-12-18T15:48:28;25.90;;;8.15;;
73859;SDS011;62197;51.632;13.700;2022-12-18T15:50:54;24.50;;;10.52;;
73859;SDS011;62197;51.632;13.700;2022-12-18T15:53:22;32.88;;;10.05;;
73859;SDS011;62197;51.632;13.700;2022-12-18T15:55:48;21.33;;;8.95;;
73859;SDS011;62197;51.632;13.700;2022-12-18T15:58:32;27.52;;;8.93;;
73859;SDS011;62197;51.632;13.700;2022-12-18T16:00:58;25.70;;;10.50;;
73859;SDS011;62197;51.632;13.700;2022-12-18T16:03:25;22.95;;;8.98;;
73859;SDS011;62197;51.632;13.700;2022-12-18T16:05:50;30.30;;;10.75;;
73859;SDS011;62197;51.632;13.700;2022-12-18T16:08:15;34.03;;;10.20;;
73859;SDS011;62197;51.632;13.700;2022-12-18T16:10:41;28.27;;;11.23;;
73859;SDS011;62197;51.632;13.700;2022-12-18T16:13:09;27.23;;;10.77;;
73859;SDS011;62197;51.632;13.700;2022-12-18T16:15:35;25.63;;;9.63;;
73859;SDS011;62197;51.632;13.700;2022-12-18T16:18:00;24.17;;;9.48;;
73859;SDS011;62197;51.632;13.700;2022-12-18T16:20:26;26.60;;;8.73;;
73859;SDS011;62197;51.632;13.700;2022-12-18T16:22:51;20.40;;;8.50;;
73859;SDS011;62197;51.632;13.700;2022-12-18T16:25:22;24.33;;;8.95;;
73859;SDS011;62197;51.632;13.700;2022-12-18T16:27:49;24.45;;;8.93;;
73859;SDS011;62197;51.632;13.700;2022-12-18T16:30:16;22.20;;;8.18;;
73859;SDS011;62197;51.632;13.700;2022-12-18T16:32:43;20.33;;;9.60;;
73859;SDS011;62197;51.632;13.700;2022-12-18T16:35:09;21.45;;;8.52;;
73859;SDS011;62197;51.632;13.700;2022-12-18T16:37:36;25.42;;;9.32;;
73859;SDS011;62197;51.632;13.700;2022-12-18T16:40:02;22.45;;;8.43;;